createdAt,value
2023-01-23T00:01:27.276Z,23.58
2023-01-23T00:03:54.927Z,27.73
2023-01-23T00:06:22.284Z,22.75
2023-01-23T00:08:48.992Z,26.85
2023-01-23T00:11:22.670Z,23.30
2023-01-23T00:13:49.388Z,19.33
2023-01-23T00:16:21.827Z,20.17
2023-01-23T00:18:49.568Z,32.78
2023-01-23T00:21:18.322Z,25.30
2023-01-23T00:23:46.751Z,22.45
2023-01-23T00:28:43.448Z,24.55
2023-01-23T00:31:13.057Z,23.15
2023-01-23T00:33:40.562Z,25.77
2023-01-23T00:36:07.614Z,75.90
2023-01-23T00:38:34.649Z,21.80
2023-01-23T00:41:02.386Z,34.42
2023-01-23T00:43:29.715Z,24.63
2023-01-23T00:45:56.425Z,57.35
2023-01-23T00:48:23.243Z,90.72
2023-01-23T00:50:50.026Z,26.55
2023-01-23T00:53:16.697Z,26.08
2023-01-23T00:55:43.275Z,28.75
2023-01-23T00:58:10.044Z,28.15
2023-01-23T01:00:37.902Z,27.20
2023-01-23T01:03:05.630Z,27.95
2023-01-23T01:05:32.574Z,37.92
2023-01-23T01:07:59.164Z,45.85
2023-01-23T01:10:29.571Z,26.60
2023-01-23T01:12:57.430Z,30.83
2023-01-23T01:15:24.046Z,70.07
2023-01-23T01:17:50.816Z,26.83
2023-01-23T01:20:17.685Z,26.05
2023-01-23T01:22:44.586Z,25.50
2023-01-23T01:25:11.161Z,27.90
2023-01-23T01:27:37.827Z,24.17
2023-01-23T01:30:04.839Z,22.25
2023-01-23T01:32:31.379Z,27.30
2023-01-23T01:34:57.933Z,23.85
2023-01-23T01:37:25.231Z,30.23
2023-01-23T01:39:51.815Z,24.48
2023-01-23T01:42:18.452Z,28.27
2023-01-23T01:44:58.090Z,31.17
2023-01-23T01:47:24.852Z,28.02
2023-01-23T01:49:53.899Z,24.25
2023-01-23T01:52:21.233Z,27.70
2023-01-23T01:54:56.137Z,26.52
2023-01-23T01:57:26.668Z,31.50
2023-01-23T02:00:06.756Z,26.83
2023-01-23T02:02:37.259Z,42.20
2023-01-23T02:05:09.731Z,26.77
2023-01-23T02:07:54.464Z,26.75
2023-01-23T02:10:22.016Z,24.90
2023-01-23T02:12:51.069Z,24.52
2023-01-23T02:15:20.299Z,26.35
2023-01-23T02:17:48.290Z,29.27
2023-01-23T02:20:21.364Z,26.77
2023-01-23T02:22:57.640Z,28.83
2023-01-23T02:25:45.564Z,29.30
2023-01-23T02:28:13.115Z,22.67
2023-01-23T02:30:42.398Z,31.13
2023-01-23T02:33:12.577Z,25.10
2023-01-23T02:35:39.335Z,20.88
2023-01-23T02:38:06.896Z,21.30
2023-01-23T02:40:36.712Z,20.20
2023-01-23T02:43:05.098Z,20.30
2023-01-23T02:45:31.982Z,18.95
2023-01-23T02:47:58.964Z,27.90
2023-01-23T02:50:25.535Z,20.60
2023-01-23T02:52:54.720Z,19.30
2023-01-23T02:55:22.266Z,22.80
2023-01-23T02:57:48.836Z,22.53
2023-01-23T03:00:22.844Z,20.92
2023-01-23T03:02:50.915Z,22.73
2023-01-23T03:05:18.217Z,22.60
2023-01-23T03:07:44.954Z,24.67
2023-01-23T03:10:12.366Z,20.90
2023-01-23T03:12:42.542Z,20.85
2023-01-23T03:15:10.113Z,21.58
2023-01-23T03:17:36.945Z,19.60
2023-01-23T03:20:06.018Z,20.40
2023-01-23T03:22:32.609Z,18.42
2023-01-23T03:24:59.454Z,20.35
2023-01-23T03:27:26.057Z,21.00
2023-01-23T03:30:11.280Z,18.98
2023-01-23T03:32:38.718Z,20.80
2023-01-23T03:35:06.705Z,22.08
2023-01-23T03:37:33.293Z,18.70
2023-01-23T03:40:18.664Z,16.80
2023-01-23T03:42:45.407Z,19.73
2023-01-23T03:45:11.974Z,20.48
2023-01-23T03:47:38.600Z,19.27
2023-01-23T03:50:06.186Z,18.00
2023-01-23T03:52:32.775Z,16.47
2023-01-23T03:54:59.331Z,18.05
2023-01-23T03:57:25.924Z,17.77
2023-01-23T03:59:52.465Z,18.70
2023-01-23T04:02:19.106Z,19.92
2023-01-23T04:04:45.761Z,20.75
2023-01-23T04:07:12.325Z,17.92
2023-01-23T04:09:38.951Z,23.75
2023-01-23T04:12:05.570Z,18.60
2023-01-23T04:14:37.363Z,17.00
2023-01-23T04:17:05.384Z,16.05
2023-01-23T04:19:32.092Z,17.70
2023-01-23T04:21:58.693Z,22.25
2023-01-23T04:24:25.376Z,21.40
2023-01-23T04:26:52.111Z,19.52
2023-01-23T04:29:18.852Z,19.85
2023-01-23T04:31:45.720Z,23.00
2023-01-23T04:34:12.379Z,18.40
2023-01-23T04:36:38.974Z,20.90
2023-01-23T04:39:05.683Z,20.00
2023-01-23T04:41:33.062Z,21.80
2023-01-23T04:44:20.214Z,21.27
2023-01-23T04:46:49.802Z,21.27
2023-01-23T04:49:18.696Z,19.73
2023-01-23T04:51:48.047Z,19.60
2023-01-23T04:54:15.256Z,18.08
2023-01-23T04:56:42.540Z,19.23
2023-01-23T04:59:09.478Z,17.70
2023-01-23T05:01:36.521Z,21.42
2023-01-23T05:04:03.726Z,19.42
2023-01-23T05:06:30.680Z,22.40
2023-01-23T05:08:57.292Z,23.33
2023-01-23T05:11:24.043Z,23.08
2023-01-23T05:13:50.850Z,21.60
2023-01-23T05:16:17.549Z,27.45
2023-01-23T05:18:44.285Z,22.92
2023-01-23T05:21:10.856Z,25.23
2023-01-23T05:23:37.437Z,31.75
2023-01-23T05:26:04.142Z,26.10
2023-01-23T05:28:30.717Z,28.30
2023-01-23T05:30:57.420Z,27.35
2023-01-23T05:33:24.161Z,30.67
2023-01-23T05:35:50.730Z,28.92
2023-01-23T05:38:17.322Z,26.70
2023-01-23T05:40:44.026Z,22.08
2023-01-23T05:43:14.748Z,24.73
2023-01-23T05:45:41.366Z,26.50
2023-01-23T05:48:08.074Z,28.83
2023-01-23T05:50:34.712Z,25.70
2023-01-23T05:53:01.371Z,23.25
2023-01-23T05:55:27.918Z,22.55
2023-01-23T05:57:54.466Z,28.35
2023-01-23T06:00:21.471Z,33.97
2023-01-23T06:02:48.416Z,33.38
2023-01-23T06:05:15.113Z,35.25
2023-01-23T06:07:41.689Z,34.60
2023-01-23T06:10:10.033Z,32.22
2023-01-23T06:15:03.508Z,32.80
2023-01-23T06:17:30.088Z,31.08
2023-01-23T06:19:56.711Z,27.92
2023-01-23T06:22:23.273Z,35.10
2023-01-23T06:24:49.931Z,36.45
2023-01-23T06:27:16.472Z,37.28
2023-01-23T06:29:43.019Z,30.10
2023-01-23T06:32:09.585Z,31.52
2023-01-23T06:34:36.717Z,36.72
2023-01-23T06:37:03.694Z,32.88
2023-01-23T06:39:30.324Z,31.65
2023-01-23T06:41:57.415Z,32.95
2023-01-23T06:44:24.301Z,32.28
2023-01-23T06:46:53.050Z,32.40
2023-01-23T06:49:19.800Z,36.60
2023-01-23T06:51:46.368Z,37.95
2023-01-23T06:54:12.909Z,35.05
2023-01-23T06:56:39.488Z,29.30
2023-01-23T06:59:06.599Z,32.80
2023-01-23T07:01:33.288Z,30.23
2023-01-23T07:03:59.932Z,37.30
2023-01-23T07:06:26.528Z,27.88
2023-01-23T07:08:53.116Z,31.58
2023-01-23T07:11:19.731Z,31.80
2023-01-23T07:13:46.301Z,31.67
2023-01-23T07:16:12.997Z,28.85
2023-01-23T07:18:39.619Z,24.70
2023-01-23T07:21:07.015Z,37.97
2023-01-23T07:23:34.139Z,32.50
2023-01-23T07:26:03.542Z,35.75
2023-01-23T07:28:30.850Z,31.20
2023-01-23T07:30:59.113Z,34.22
2023-01-23T07:33:25.802Z,35.92
2023-01-23T07:35:52.341Z,33.75
2023-01-23T07:38:19.017Z,28.80
2023-01-23T07:40:45.692Z,33.10
2023-01-23T07:43:13.488Z,32.58
2023-01-23T07:45:40.112Z,26.50
2023-01-23T07:48:06.742Z,29.90
2023-01-23T07:50:33.500Z,29.85
2023-01-23T07:53:00.088Z,28.02
2023-01-23T07:55:26.658Z,26.17
2023-01-23T07:57:53.260Z,24.63
2023-01-23T08:00:22.252Z,25.60
2023-01-23T08:02:50.021Z,26.02
2023-01-23T08:05:16.580Z,26.52
2023-01-23T08:07:43.445Z,29.17
2023-01-23T08:10:11.086Z,24.67
2023-01-23T08:12:37.731Z,24.20
2023-01-23T08:15:04.920Z,26.05
2023-01-23T08:17:31.665Z,25.05
2023-01-23T08:19:58.242Z,26.83
2023-01-23T08:22:24.952Z,28.58
2023-01-23T08:24:51.575Z,33.05
2023-01-23T08:27:18.216Z,29.10
2023-01-23T08:29:44.788Z,29.70
2023-01-23T08:32:11.337Z,26.45
2023-01-23T08:34:38.119Z,27.98
2023-01-23T08:37:04.689Z,24.70
2023-01-23T08:39:31.302Z,31.63
2023-01-23T08:41:58.024Z,23.95
2023-01-23T08:44:24.929Z,27.10
2023-01-23T08:46:51.503Z,29.67
2023-01-23T08:49:20.806Z,25.95
2023-01-23T08:51:47.677Z,29.90
2023-01-23T08:54:14.512Z,29.00
2023-01-23T08:56:41.406Z,30.98
2023-01-23T08:59:09.146Z,29.13
2023-01-23T09:01:36.089Z,25.20
2023-01-23T09:04:02.929Z,27.98
2023-01-23T09:06:29.870Z,29.15
2023-01-23T09:08:57.001Z,26.48
2023-01-23T09:11:24.197Z,23.73
2023-01-23T09:13:53.741Z,26.90
2023-01-23T09:16:20.920Z,29.73
2023-01-23T09:18:47.767Z,23.95
2023-01-23T09:21:16.706Z,23.20
2023-01-23T09:23:44.286Z,25.42
2023-01-23T09:26:13.085Z,23.67
2023-01-23T09:28:42.896Z,24.65
2023-01-23T09:31:13.042Z,26.05
2023-01-23T09:33:41.010Z,29.77
2023-01-23T09:36:08.287Z,26.42
2023-01-23T09:38:35.140Z,22.75
2023-01-23T09:41:09.730Z,31.58
2023-01-23T09:44:02.493Z,31.88
2023-01-23T09:46:35.452Z,24.83
2023-01-23T09:49:19.346Z,27.63
2023-01-23T09:52:06.357Z,26.00
2023-01-23T09:54:47.156Z,27.52
2023-01-23T09:57:15.255Z,30.45
2023-01-23T09:59:58.811Z,30.38
2023-01-23T10:02:27.947Z,29.10
2023-01-23T10:04:56.039Z,33.38
2023-01-23T10:07:25.301Z,31.98
2023-01-23T10:09:54.566Z,36.58
2023-01-23T10:12:42.777Z,31.35
2023-01-23T10:18:00.870Z,34.70
2023-01-23T10:20:55.695Z,34.50
2023-01-23T10:23:40.813Z,35.58
2023-01-23T10:26:22.509Z,34.20
2023-01-23T10:28:51.902Z,37.45
2023-01-23T10:31:18.892Z,40.45
2023-01-23T10:34:00.024Z,36.38
2023-01-23T10:36:47.645Z,35.65
2023-01-23T10:39:26.866Z,31.35
2023-01-23T10:42:02.147Z,31.77
2023-01-23T10:44:29.394Z,36.85
2023-01-23T10:47:01.068Z,39.97
2023-01-23T10:49:30.485Z,31.60
2023-01-23T10:51:57.465Z,35.45
2023-01-23T10:54:33.890Z,36.90
2023-01-23T10:57:20.832Z,40.53
2023-01-23T11:00:01.473Z,32.70
2023-01-23T11:02:33.727Z,38.85
2023-01-23T11:05:01.590Z,40.60
2023-01-23T11:07:32.108Z,33.63
2023-01-23T11:10:02.149Z,35.70
2023-01-23T11:12:34.025Z,35.47
2023-01-23T11:15:29.717Z,39.05
2023-01-23T11:17:57.946Z,36.00
2023-01-23T11:20:33.458Z,37.53
2023-01-23T11:23:06.441Z,32.50
2023-01-23T11:25:37.498Z,32.40
2023-01-23T11:28:27.410Z,32.53
2023-01-23T11:31:14.572Z,32.85
2023-01-23T11:33:57.219Z,34.58
2023-01-23T11:37:01.214Z,34.83
2023-01-23T11:39:52.805Z,39.35
2023-01-23T11:42:19.816Z,33.50
2023-01-23T11:44:47.831Z,31.40
2023-01-23T11:47:42.452Z,27.65
2023-01-23T11:50:22.404Z,35.97
2023-01-23T11:53:01.484Z,41.20
2023-01-23T11:55:38.847Z,39.35
2023-01-23T11:58:09.744Z,28.08
2023-01-23T12:00:44.821Z,34.08
2023-01-23T12:03:32.727Z,37.63
2023-01-23T12:06:20.253Z,38.58
2023-01-23T12:09:18.564Z,39.33
2023-01-23T12:14:17.353Z,40.70
2023-01-23T12:16:55.759Z,37.03
2023-01-23T12:22:03.432Z,39.20
2023-01-23T12:24:44.673Z,38.75
2023-01-23T12:27:36.138Z,39.60
2023-01-23T12:30:33.971Z,39.33
2023-01-23T12:33:03.294Z,49.42
2023-01-23T12:35:58.142Z,44.38
2023-01-23T12:38:35.322Z,41.22
2023-01-23T12:41:18.636Z,40.15
2023-01-23T12:43:52.640Z,34.05
2023-01-23T12:46:37.596Z,43.03
2023-01-23T12:49:14.405Z,37.47
2023-01-23T12:51:44.256Z,37.92
2023-01-23T12:54:22.408Z,34.78
2023-01-23T12:59:35.743Z,48.42
2023-01-23T13:02:20.944Z,45.03
2023-01-23T13:05:21.564Z,45.97
2023-01-23T13:08:06.664Z,31.75
2023-01-23T13:11:20.304Z,31.85
2023-01-23T13:13:47.035Z,37.28
2023-01-23T13:16:16.068Z,31.27
2023-01-23T13:19:20.621Z,34.53
2023-01-23T13:22:28.667Z,33.47
2023-01-23T13:25:13.093Z,37.80
2023-01-23T13:27:52.271Z,40.22
2023-01-23T13:30:22.280Z,34.40
2023-01-23T13:32:51.529Z,39.13
2023-01-23T13:35:40.511Z,37.13
2023-01-23T13:38:22.192Z,32.20
2023-01-23T13:41:21.096Z,30.27
2023-01-23T13:43:50.415Z,30.98
2023-01-23T14:24:24.418Z,33.88
2023-01-23T14:27:02.503Z,38.15
2023-01-23T14:29:31.364Z,32.72
2023-01-23T14:31:58.043Z,34.45
2023-01-23T14:34:25.857Z,37.17
2023-01-23T14:36:58.338Z,33.33
2023-01-23T14:39:28.052Z,36.67
2023-01-23T14:41:58.001Z,37.00
2023-01-23T14:44:46.422Z,36.63
2023-01-23T14:47:45.453Z,37.43
2023-01-23T14:50:18.366Z,35.75
2023-01-23T14:52:45.072Z,43.80
2023-01-23T14:55:29.824Z,40.83
2023-01-23T14:57:59.029Z,39.25
2023-01-23T15:00:26.559Z,46.40
2023-01-23T15:02:54.564Z,47.50
2023-01-23T15:05:25.115Z,45.17
2023-01-23T15:08:10.581Z,43.58
2023-01-23T15:10:43.336Z,45.97
2023-01-23T15:13:29.183Z,41.58
2023-01-23T15:15:58.249Z,43.30
2023-01-23T15:18:28.213Z,45.63
2023-01-23T15:21:00.148Z,41.53
2023-01-23T15:23:35.062Z,45.10
2023-01-23T15:26:33.242Z,40.20
2023-01-23T15:31:36.258Z,43.13
2023-01-23T15:34:15.233Z,47.55
2023-01-23T15:36:57.121Z,42.17
2023-01-23T15:39:33.115Z,41.20
2023-01-23T15:42:21.057Z,40.38
2023-01-23T15:44:47.605Z,39.03
2023-01-23T15:47:14.499Z,38.95
2023-01-23T15:49:41.050Z,41.22
2023-01-23T15:52:21.549Z,41.60
2023-01-23T15:54:49.740Z,40.63
2023-01-23T15:57:16.419Z,33.90
2023-01-23T15:59:43.018Z,38.58
2023-01-23T16:02:39.370Z,37.25
2023-01-23T16:05:07.903Z,41.13
2023-01-23T16:07:36.427Z,40.37
2023-01-23T16:10:25.749Z,39.10
2023-01-23T16:12:54.345Z,37.08
2023-01-23T16:15:27.167Z,36.65
2023-01-23T16:17:54.019Z,33.83
2023-01-23T16:20:22.808Z,38.90
2023-01-23T16:22:52.321Z,39.55
2023-01-23T16:25:23.610Z,34.80
2023-01-23T16:27:55.411Z,37.70
2023-01-23T16:30:26.425Z,40.60
2023-01-23T16:32:54.004Z,34.60
2023-01-23T16:35:21.681Z,36.23
2023-01-23T16:37:50.692Z,37.85
2023-01-23T16:40:19.867Z,37.17
2023-01-23T16:42:48.161Z,33.97
2023-01-23T16:45:23.388Z,34.20
2023-01-23T16:47:50.426Z,36.13
2023-01-23T16:50:36.900Z,37.38
2023-01-23T16:53:10.637Z,37.30
2023-01-23T16:55:40.267Z,35.83
2023-01-23T16:58:07.869Z,43.45
2023-01-23T17:00:35.530Z,34.60
2023-01-23T17:03:05.194Z,37.28
2023-01-23T17:05:31.767Z,36.63
2023-01-23T17:07:58.353Z,38.20
2023-01-23T17:10:29.881Z,41.83
2023-01-23T17:13:01.373Z,37.67
2023-01-23T17:15:29.445Z,40.03
2023-01-23T17:17:58.500Z,41.75
2023-01-23T17:20:25.381Z,43.33
2023-01-23T17:22:51.960Z,42.90
2023-01-23T17:25:21.348Z,36.03
2023-01-23T17:27:59.999Z,37.70
2023-01-23T17:30:35.214Z,32.70
2023-01-23T17:33:01.800Z,34.75
2023-01-23T17:35:33.162Z,35.38
2023-01-23T17:38:00.507Z,38.95
2023-01-23T17:40:28.324Z,37.28
2023-01-23T17:42:55.292Z,42.35
2023-01-23T17:45:24.135Z,37.13
2023-01-23T17:47:53.527Z,33.30
2023-01-23T17:50:23.200Z,34.60
2023-01-23T17:52:50.960Z,37.10
2023-01-23T17:55:20.036Z,32.70
2023-01-23T17:57:46.768Z,34.10
2023-01-23T18:00:18.661Z,37.75
2023-01-23T18:02:53.315Z,36.80
2023-01-23T18:05:20.190Z,29.38
2023-01-23T18:07:53.895Z,32.30
2023-01-23T18:10:22.051Z,34.25
2023-01-23T18:13:07.026Z,32.42
2023-01-23T18:15:47.617Z,33.33
2023-01-23T18:18:29.432Z,29.92
2023-01-23T18:20:57.214Z,31.10
2023-01-23T18:23:25.501Z,30.63
2023-01-23T18:26:21.117Z,31.73
2023-01-23T18:29:21.400Z,30.80
2023-01-23T18:31:51.056Z,28.35
2023-01-23T18:34:35.910Z,29.70
2023-01-23T18:37:14.066Z,32.53
2023-01-23T18:40:25.507Z,29.80
2023-01-23T18:43:10.322Z,31.38
2023-01-23T18:45:37.269Z,27.50
2023-01-23T18:48:04.720Z,25.58
2023-01-23T18:50:35.878Z,29.35
2023-01-23T18:53:43.725Z,27.55
2023-01-23T18:58:43.932Z,33.90
2023-01-23T19:01:24.125Z,29.42
2023-01-23T19:03:51.256Z,32.92
2023-01-23T19:06:23.992Z,38.17
2023-01-23T19:08:52.122Z,35.58
2023-01-23T19:11:57.630Z,34.22
2023-01-23T19:15:01.725Z,32.90
2023-01-23T19:18:03.804Z,38.00
2023-01-23T19:20:44.336Z,39.20
2023-01-23T19:23:36.376Z,40.97
2023-01-23T19:26:03.270Z,41.42
2023-01-23T19:28:30.069Z,40.03
2023-01-23T19:30:56.895Z,34.92
2023-01-23T19:33:23.852Z,38.63
2023-01-23T19:35:51.404Z,35.92
2023-01-23T19:38:18.066Z,35.13
2023-01-23T19:40:45.331Z,38.80
2023-01-23T19:43:16.851Z,35.08
2023-01-23T19:45:44.811Z,40.67
2023-01-23T19:48:11.806Z,39.05
2023-01-23T19:50:38.828Z,39.15
2023-01-23T19:53:05.725Z,38.80
2023-01-23T19:55:34.493Z,46.38
2023-01-23T19:58:01.083Z,45.42
2023-01-23T20:00:29.851Z,40.90
2023-01-23T20:02:56.922Z,44.05
2023-01-23T20:05:24.026Z,46.97
2023-01-23T20:07:50.614Z,43.78
2023-01-23T20:10:17.752Z,40.42
2023-01-23T20:12:46.649Z,49.25
2023-01-23T20:15:14.721Z,41.28
2023-01-23T20:17:42.188Z,40.45
2023-01-23T20:20:11.347Z,42.25
2023-01-23T20:22:39.037Z,40.50
2023-01-23T20:25:12.876Z,37.70
2023-01-23T20:27:40.108Z,39.33
2023-01-23T20:30:12.016Z,41.78
2023-01-23T20:32:38.613Z,35.22
2023-01-23T20:35:05.543Z,33.25
2023-01-23T20:37:32.119Z,34.90
2023-01-23T20:39:58.843Z,41.33
2023-01-23T20:42:25.445Z,37.08
2023-01-23T20:44:52.063Z,32.00
2023-01-23T20:47:18.659Z,38.30
2023-01-23T20:49:45.217Z,39.50
2023-01-23T20:52:30.325Z,35.13
2023-01-23T20:54:56.892Z,36.03
2023-01-23T20:57:23.524Z,38.90
2023-01-23T20:59:50.086Z,33.10
2023-01-23T21:02:27.065Z,35.65
2023-01-23T21:04:53.818Z,34.88
2023-01-23T21:07:21.765Z,32.50
2023-01-23T21:09:48.459Z,35.17
2023-01-23T21:12:15.411Z,31.15
2023-01-23T21:14:41.965Z,34.05
2023-01-23T21:17:09.682Z,33.65
2023-01-23T21:19:37.991Z,30.27
2023-01-23T21:22:06.142Z,32.72
2023-01-23T21:24:36.801Z,31.67
2023-01-23T21:27:06.937Z,34.85
2023-01-23T21:29:33.690Z,30.60
2023-01-23T21:32:00.381Z,31.30
2023-01-23T21:34:27.132Z,30.45
2023-01-23T21:36:53.757Z,30.48
2023-01-23T21:39:20.660Z,31.05
2023-01-23T21:41:47.263Z,31.10
2023-01-23T21:44:13.941Z,29.83
2023-01-23T21:46:40.769Z,33.38
2023-01-23T21:49:07.552Z,27.95
2023-01-23T21:51:34.209Z,30.02
2023-01-23T21:54:00.827Z,31.00
2023-01-23T21:56:27.493Z,30.83
2023-01-23T21:58:55.309Z,30.67
2023-01-23T22:01:33.875Z,33.42
2023-01-23T22:04:05.446Z,27.50
2023-01-23T22:06:33.484Z,29.55
2023-01-23T22:09:00.158Z,33.22
2023-01-23T22:11:26.991Z,29.90
2023-01-23T22:13:54.124Z,29.63
2023-01-23T22:16:22.869Z,33.03
2023-01-23T22:18:55.070Z,31.20
2023-01-23T22:21:21.651Z,29.27
2023-01-23T22:23:48.286Z,29.13
2023-01-23T22:26:14.887Z,28.23
2023-01-23T22:28:41.771Z,24.73
2023-01-23T22:31:11.083Z,28.95
2023-01-23T22:33:43.008Z,32.15
2023-01-23T22:36:13.003Z,27.75
2023-01-23T22:38:39.592Z,30.48
2023-01-23T22:41:06.707Z,34.75
2023-01-23T22:43:34.406Z,30.58
2023-01-23T22:46:13.119Z,30.83
2023-01-23T22:48:39.998Z,29.60
2023-01-23T22:51:09.780Z,37.47
2023-01-23T22:53:36.338Z,30.45
2023-01-23T22:56:06.274Z,34.83
2023-01-23T22:58:35.891Z,35.72
2023-01-23T23:01:02.577Z,28.92
2023-01-23T23:03:33.502Z,34.13
2023-01-23T23:06:08.223Z,37.72
2023-01-23T23:08:35.322Z,36.15
2023-01-23T23:11:07.304Z,36.33
2023-01-23T23:13:36.359Z,41.00
2023-01-23T23:16:08.279Z,47.50
2023-01-23T23:18:37.437Z,45.10
2023-01-23T23:21:07.791Z,43.05
2023-01-23T23:23:34.738Z,47.85
2023-01-23T23:26:01.379Z,43.03
2023-01-23T23:28:28.295Z,51.75
2023-01-23T23:30:54.908Z,44.65
2023-01-23T23:33:21.629Z,45.85
2023-01-23T23:35:48.304Z,47.70
2023-01-23T23:38:15.445Z,47.10
2023-01-23T23:40:42.305Z,45.90
2023-01-23T23:43:09.384Z,50.92
2023-01-23T23:45:36.003Z,49.05
2023-01-23T23:48:02.710Z,44.65
2023-01-23T23:50:29.741Z,40.58
2023-01-23T23:52:56.323Z,41.92
2023-01-23T23:55:23.374Z,44.85
2023-01-23T23:57:50.134Z,36.50
